sensor_id;sensor_type;location;lat;lon;timestamp;pressure;altitude;pressure_sealevel;temperature;humidity
15750;BME280;7976;52.526;13.326;2022-08-01T00:01:49;100756.06;;;22.70;62.99
15750;BME280;7976;52.526;13.326;2022-08-01T00:04:17;100757.28;;;22.66;62.70
15750;BME280;7976;52.526;13.326;2022-08-01T00:06:44;100756.59;;;22.64;63.06
15750;BME280;7976;52.526;13.326;2022-08-01T00:09:11;100758.44;;;22.63;63.39
15750;BME280;7976;52.526;13.326;2022-08-01T00:11:38;100766.84;;;22.59;63.21
15750;BME280;7976;52.526;13.326;2022-08-01T00:14:05;100764.31;;;22.57;63.69
15750;BME280;7976;52.526;13.326;2022-08-01T00:16:32;100757.63;;;22.52;64.08
15750;BME280;7976;52.526;13.326;2022-08-01T00:18:59;100763.25;;;22.49;64.71
15750;BME280;7976;52.526;13.326;2022-08-01T00:21:27;100760.81;;;22.46;64.77
15750;BME280;7976;52.526;13.326;2022-08-01T00:23:54;100754.78;;;22.44;65.29
15750;BME280;7976;52.526;13.326;2022-08-01T00:26:21;100747.59;;;22.44;65.30
15750;BME280;7976;52.526;13.326;2022-08-01T00:28:48;100755.03;;;22.40;65.88
15750;BME280;7976;52.526;13.326;2022-08-01T00:31:15;100760.03;;;22.34;66.61
15750;BME280;7976;52.526;13.326;2022-08-01T00:33:42;100758.63;;;22.30;66.55
15750;BME280;7976;52.526;13.326;2022-08-01T00:36:09;100763.38;;;22.26;67.28
15750;BME280;7976;52.526;13.326;2022-08-01T00:38:37;100764.25;;;22.27;67.54
15750;BME280;7976;52.526;13.326;2022-08-01T00:41:04;100754.41;;;22.27;67.87
15750;BME280;7976;52.526;13.326;2022-08-01T00:43:30;100748.25;;;22.27;68.31
15750;BME280;7976;52.526;13.326;2022-08-01T00:45:57;100754.06;;;22.21;68.97
15750;BME280;7976;52.526;13.326;2022-08-01T00:48:24;100746.97;;;22.10;69.50
15750;BME280;7976;52.526;13.326;2022-08-01T00:50:51;100752.13;;;22.02;70.52
15750;BME280;7976;52.526;13.326;2022-08-01T00:53:18;100755.91;;;22.00;70.73
15750;BME280;7976;52.526;13.326;2022-08-01T00:55:47;100759.53;;;21.99;70.99
15750;BME280;7976;52.526;13.326;2022-08-01T00:58:14;100749.38;;;21.93;71.51
15750;BME280;7976;52.526;13.326;2022-08-01T01:00:41;100739.25;;;21.87;71.98
15750;BME280;7976;52.526;13.326;2022-08-01T01:03:08;100746.66;;;21.83;72.84
15750;BME280;7976;52.526;13.326;2022-08-01T01:05:45;100741.69;;;21.79;73.23
15750;BME280;7976;52.526;13.326;2022-08-01T01:08:22;100741.31;;;21.72;73.55
15750;BME280;7976;52.526;13.326;2022-08-01T01:11:01;100739.19;;;21.66;74.31
15750;BME280;7976;52.526;13.326;2022-08-01T01:13:38;100744.66;;;21.65;74.10
15750;BME280;7976;52.526;13.326;2022-08-01T01:16:13;100742.34;;;21.60;74.16
15750;BME280;7976;52.526;13.326;2022-08-01T01:18:46;100741.50;;;21.60;74.58
15750;BME280;7976;52.526;13.326;2022-08-01T01:21:32;100738.72;;;21.61;74.72
15750;BME280;7976;52.526;13.326;2022-08-01T01:24:17;100741.38;;;21.61;74.95
15750;BME280;7976;52.526;13.326;2022-08-01T01:26:57;100736.91;;;21.62;74.80
15750;BME280;7976;52.526;13.326;2022-08-01T01:29:31;100731.44;;;21.63;74.89
15750;BME280;7976;52.526;13.326;2022-08-01T01:32:06;100727.81;;;21.64;74.27
15750;BME280;7976;52.526;13.326;2022-08-01T01:34:38;100733.00;;;21.66;74.31
15750;BME280;7976;52.526;13.326;2022-08-01T01:37:11;100726.72;;;21.67;74.20
15750;BME280;7976;52.526;13.326;2022-08-01T01:39:41;100727.81;;;21.64;74.20
15750;BME280;7976;52.526;13.326;2022-08-01T01:42:09;100723.47;;;21.63;74.33
15750;BME280;7976;52.526;13.326;2022-08-01T01:44:39;100729.47;;;21.65;74.69
15750;BME280;7976;52.526;13.326;2022-08-01T01:47:07;100728.66;;;21.65;74.38
15750;BME280;7976;52.526;13.326;2022-08-01T01:49:34;100725.00;;;21.66;74.28
15750;BME280;7976;52.526;13.326;2022-08-01T01:52:03;100728.91;;;21.62;74.58
15750;BME280;7976;52.526;13.326;2022-08-01T01:54:35;100730.00;;;21.59;74.29
15750;BME280;7976;52.526;13.326;2022-08-01T01:57:04;100735.47;;;21.58;74.35
15750;BME280;7976;52.526;13.326;2022-08-01T01:59:37;100725.19;;;21.53;74.98
15750;BME280;7976;52.526;13.326;2022-08-01T02:02:07;100728.34;;;21.47;74.87
15750;BME280;7976;52.526;13.326;2022-08-01T02:04:40;100723.28;;;21.44;75.02
15750;BME280;7976;52.526;13.326;2022-08-01T02:07:11;100722.69;;;21.41;75.38
15750;BME280;7976;52.526;13.326;2022-08-01T02:09:42;100730.94;;;21.38;75.65
15750;BME280;7976;52.526;13.326;2022-08-01T02:12:13;100726.69;;;21.35;75.59
15750;BME280;7976;52.526;13.326;2022-08-01T02:14:43;100726.81;;;21.34;75.82
15750;BME280;7976;52.526;13.326;2022-08-01T02:17:16;100730.72;;;21.30;75.52
15750;BME280;7976;52.526;13.326;2022-08-01T02:19:44;100732.78;;;21.26;76.32
15750;BME280;7976;52.526;13.326;2022-08-01T02:22:19;100728.66;;;21.22;76.23
15750;BME280;7976;52.526;13.326;2022-08-01T02:24:56;100731.44;;;21.21;76.40
15750;BME280;7976;52.526;13.326;2022-08-01T02:27:33;100729.03;;;21.17;76.68
15750;BME280;7976;52.526;13.326;2022-08-01T02:30:06;100731.84;;;21.16;76.75
15750;BME280;7976;52.526;13.326;2022-08-01T02:32:39;100724.94;;;21.13;77.11
15750;BME280;7976;52.526;13.326;2022-08-01T02:35:12;100727.13;;;21.08;77.50
15750;BME280;7976;52.526;13.326;2022-08-01T02:37:42;100730.88;;;21.06;77.36
15750;BME280;7976;52.526;13.326;2022-08-01T02:40:10;100735.34;;;21.05;77.60
15750;BME280;7976;52.526;13.326;2022-08-01T02:42:41;100728.47;;;21.03;78.43
15750;BME280;7976;52.526;13.326;2022-08-01T02:45:13;100731.03;;;21.04;78.46
15750;BME280;7976;52.526;13.326;2022-08-01T02:47:42;100731.63;;;21.08;78.24
15750;BME280;7976;52.526;13.326;2022-08-01T02:50:14;100725.44;;;21.07;78.64
15750;BME280;7976;52.526;13.326;2022-08-01T02:52:45;100722.91;;;21.06;78.48
15750;BME280;7976;52.526;13.326;2022-08-01T02:55:13;100719.38;;;21.05;78.39
15750;BME280;7976;52.526;13.326;2022-08-01T02:57:42;100724.84;;;21.04;78.94
15750;BME280;7976;52.526;13.326;2022-08-01T03:00:12;100724.59;;;21.07;78.60
15750;BME280;7976;52.526;13.326;2022-08-01T03:02:41;100725.56;;;21.06;78.42
15750;BME280;7976;52.526;13.326;2022-08-01T03:05:12;100731.84;;;21.05;78.89
15750;BME280;7976;52.526;13.326;2022-08-01T03:07:41;100730.03;;;21.05;79.00
15750;BME280;7976;52.526;13.326;2022-08-01T03:10:11;100736.47;;;21.03;78.70
15750;BME280;7976;52.526;13.326;2022-08-01T03:12:40;100731.38;;;21.00;78.82
15750;BME280;7976;52.526;13.326;2022-08-01T03:15:11;100728.69;;;21.00;78.76
15750;BME280;7976;52.526;13.326;2022-08-01T03:17:43;100729.69;;;20.99;79.00
15750;BME280;7976;52.526;13.326;2022-08-01T03:20:14;100733.53;;;20.95;79.44
15750;BME280;7976;52.526;13.326;2022-08-01T03:22:43;100731.97;;;20.92;79.22
15750;BME280;7976;52.526;13.326;2022-08-01T03:25:13;100733.78;;;20.92;79.63
15750;BME280;7976;52.526;13.326;2022-08-01T03:27:43;100730.97;;;20.93;79.45
15750;BME280;7976;52.526;13.326;2022-08-01T03:30:14;100730.16;;;20.93;79.53
15750;BME280;7976;52.526;13.326;2022-08-01T03:32:41;100748.66;;;20.94;79.43
15750;BME280;7976;52.526;13.326;2022-08-01T03:35:08;100746.00;;;20.94;79.46
15750;BME280;7976;52.526;13.326;2022-08-01T03:37:42;100737.78;;;20.97;79.90
15750;BME280;7976;52.526;13.326;2022-08-01T03:40:17;100745.41;;;21.02;79.90
15750;BME280;7976;52.526;13.326;2022-08-01T03:42:50;100741.78;;;21.03;79.51
15750;BME280;7976;52.526;13.326;2022-08-01T03:45:23;100749.78;;;21.03;79.55
15750;BME280;7976;52.526;13.326;2022-08-01T03:47:59;100744.66;;;21.00;79.28
15750;BME280;7976;52.526;13.326;2022-08-01T03:50:28;100748.06;;;21.02;79.57
15750;BME280;7976;52.526;13.326;2022-08-01T03:52:59;100747.25;;;21.01;79.63
15750;BME280;7976;52.526;13.326;2022-08-01T03:55:28;100753.38;;;21.02;79.56
15750;BME280;7976;52.526;13.326;2022-08-01T03:57:58;100750.47;;;21.05;79.47
15750;BME280;7976;52.526;13.326;2022-08-01T04:00:27;100751.47;;;21.04;79.60
15750;BME280;7976;52.526;13.326;2022-08-01T04:02:55;100749.41;;;21.07;79.35
15750;BME280;7976;52.526;13.326;2022-08-01T04:05:22;100755.56;;;21.08;79.04
15750;BME280;7976;52.526;13.326;2022-08-01T04:07:50;100752.91;;;21.08;79.44
15750;BME280;7976;52.526;13.326;2022-08-01T04:10:21;100748.53;;;21.07;79.93
15750;BME280;7976;52.526;13.326;2022-08-01T04:12:48;100755.72;;;21.06;79.91
15750;BME280;7976;52.526;13.326;2022-08-01T04:15:16;100749.28;;;21.09;79.77
15750;BME280;7976;52.526;13.326;2022-08-01T04:17:44;100749.41;;;21.07;79.48
15750;BME280;7976;52.526;13.326;2022-08-01T04:20:12;100751.34;;;21.05;80.02
15750;BME280;7976;52.526;13.326;2022-08-01T04:22:39;100754.97;;;21.04;80.40
15750;BME280;7976;52.526;13.326;2022-08-01T04:25:12;100756.31;;;20.99;80.66
15750;BME280;7976;52.526;13.326;2022-08-01T04:27:46;100755.44;;;20.98;81.19
15750;BME280;7976;52.526;13.326;2022-08-01T04:30:16;100760.78;;;20.98;81.12
15750;BME280;7976;52.526;13.326;2022-08-01T04:32:47;100762.59;;;20.98;81.36
15750;BME280;7976;52.526;13.326;2022-08-01T04:35:18;100761.75;;;20.97;81.90
15750;BME280;7976;52.526;13.326;2022-08-01T04:37:47;100770.59;;;20.98;81.83
15750;BME280;7976;52.526;13.326;2022-08-01T04:40:17;100766.19;;;20.97;81.62
15750;BME280;7976;52.526;13.326;2022-08-01T04:42:48;100770.78;;;20.95;81.96
15750;BME280;7976;52.526;13.326;2022-08-01T04:45:16;100766.56;;;20.92;81.89
15750;BME280;7976;52.526;13.326;2022-08-01T04:47:46;100771.03;;;20.92;82.13
15750;BME280;7976;52.526;13.326;2022-08-01T04:50:13;100773.81;;;20.90;81.94
15750;BME280;7976;52.526;13.326;2022-08-01T04:52:41;100774.06;;;20.87;82.63
15750;BME280;7976;52.526;13.326;2022-08-01T04:55:09;100771.66;;;20.84;82.63
15750;BME280;7976;52.526;13.326;2022-08-01T04:57:39;100774.19;;;20.86;82.96
15750;BME280;7976;52.526;13.326;2022-08-01T05:00:07;100770.06;;;20.82;83.58
15750;BME280;7976;52.526;13.326;2022-08-01T05:02:36;100780.47;;;20.85;83.31
15750;BME280;7976;52.526;13.326;2022-08-01T05:05:06;100780.47;;;20.85;83.39
15750;BME280;7976;52.526;13.326;2022-08-01T05:07:33;100784.72;;;20.87;83.76
15750;BME280;7976;52.526;13.326;2022-08-01T05:10:03;100775.63;;;20.90;83.61
15750;BME280;7976;52.526;13.326;2022-08-01T05:12:30;100787.72;;;20.94;83.46
15750;BME280;7976;52.526;13.326;2022-08-01T05:14:57;100782.91;;;20.99;83.77
15750;BME280;7976;52.526;13.326;2022-08-01T05:17:24;100779.06;;;21.03;83.55
15750;BME280;7976;52.526;13.326;2022-08-01T05:19:51;100777.81;;;21.07;83.05
15750;BME280;7976;52.526;13.326;2022-08-01T05:22:20;100792.84;;;21.08;83.19
15750;BME280;7976;52.526;13.326;2022-08-01T05:24:48;100786.66;;;21.07;83.31
15750;BME280;7976;52.526;13.326;2022-08-01T05:27:15;100785.00;;;21.06;83.65
15750;BME280;7976;52.526;13.326;2022-08-01T05:29:42;100784.88;;;21.08;83.60
15750;BME280;7976;52.526;13.326;2022-08-01T05:32:09;100784.00;;;21.07;84.01
15750;BME280;7976;52.526;13.326;2022-08-01T05:34:35;100785.47;;;21.11;84.03
15750;BME280;7976;52.526;13.326;2022-08-01T05:37:02;100783.38;;;21.15;83.51
15750;BME280;7976;52.526;13.326;2022-08-01T05:39:31;100779.38;;;21.21;83.75
15750;BME280;7976;52.526;13.326;2022-08-01T05:41:57;100778.31;;;21.23;83.80
15750;BME280;7976;52.526;13.326;2022-08-01T05:44:24;100790.38;;;21.27;83.80
15750;BME280;7976;52.526;13.326;2022-08-01T05:46:51;100787.47;;;21.30;83.31
15750;BME280;7976;52.526;13.326;2022-08-01T05:49:18;100796.44;;;21.29;83.52
15750;BME280;7976;52.526;13.326;2022-08-01T05:51:45;100783.84;;;21.31;83.10
15750;BME280;7976;52.526;13.326;2022-08-01T05:54:12;100793.53;;;21.32;83.07
15750;BME280;7976;52.526;13.326;2022-08-01T05:56:40;100795.47;;;21.30;83.55
15750;BME280;7976;52.526;13.326;2022-08-01T05:59:07;100798.13;;;21.30;83.44
15750;BME280;7976;52.526;13.326;2022-08-01T06:04:01;100804.66;;;21.37;83.07
15750;BME280;7976;52.526;13.326;2022-08-01T06:06:28;100807.06;;;21.40;83.13
15750;BME280;7976;52.526;13.326;2022-08-01T06:08:55;100812.16;;;21.43;82.90
15750;BME280;7976;52.526;13.326;2022-08-01T06:11:21;100806.84;;;21.43;82.82
15750;BME280;7976;52.526;13.326;2022-08-01T06:13:50;100800.78;;;21.41;82.75
15750;BME280;7976;52.526;13.326;2022-08-01T06:16:16;100804.41;;;21.40;83.04
15750;BME280;7976;52.526;13.326;2022-08-01T06:18:43;100803.56;;;21.40;82.59
15750;BME280;7976;52.526;13.326;2022-08-01T06:21:10;100808.03;;;21.39;82.68
15750;BME280;7976;52.526;13.326;2022-08-01T06:23:37;100808.03;;;21.39;83.08
15750;BME280;7976;52.526;13.326;2022-08-01T06:26:04;100818.69;;;21.39;82.84
15750;BME280;7976;52.526;13.326;2022-08-01T06:28:31;100816.75;;;21.41;82.80
15750;BME280;7976;52.526;13.326;2022-08-01T06:30:59;100817.38;;;21.45;82.81
15750;BME280;7976;52.526;13.326;2022-08-01T06:33:26;100817.59;;;21.53;83.04
15750;BME280;7976;52.526;13.326;2022-08-01T06:35:53;100818.66;;;21.61;82.58
15750;BME280;7976;52.526;13.326;2022-08-01T06:38:20;100818.88;;;21.69;82.13
15750;BME280;7976;52.526;13.326;2022-08-01T06:40:47;100822.00;;;21.74;81.92
15750;BME280;7976;52.526;13.326;2022-08-01T06:43:14;100821.03;;;21.75;81.28
15750;BME280;7976;52.526;13.326;2022-08-01T06:45:41;100812.34;;;21.73;81.53
15750;BME280;7976;52.526;13.326;2022-08-01T06:48:09;100821.66;;;21.79;81.69
15750;BME280;7976;52.526;13.326;2022-08-01T06:50:36;100817.66;;;21.84;80.72
15750;BME280;7976;52.526;13.326;2022-08-01T06:53:03;100823.69;;;21.86;80.82
15750;BME280;7976;52.526;13.326;2022-08-01T06:55:30;100818.38;;;21.86;80.43
15750;BME280;7976;52.526;13.326;2022-08-01T06:57:57;100825.63;;;21.84;80.70
15750;BME280;7976;52.526;13.326;2022-08-01T07:00:25;100814.25;;;21.82;80.71
15750;BME280;7976;52.526;13.326;2022-08-01T07:02:55;100834.75;;;21.82;80.52
15750;BME280;7976;52.526;13.326;2022-08-01T07:05:26;100815.25;;;21.81;80.54
15750;BME280;7976;52.526;13.326;2022-08-01T07:07:53;100820.44;;;21.83;80.79
15750;BME280;7976;52.526;13.326;2022-08-01T07:10:20;100818.84;;;21.80;80.55
15750;BME280;7976;52.526;13.326;2022-08-01T07:12:47;100825.16;;;21.79;80.40
15750;BME280;7976;52.526;13.326;2022-08-01T07:15:14;100826.84;;;21.80;80.96
15750;BME280;7976;52.526;13.326;2022-08-01T07:17:42;100829.28;;;21.83;80.74
15750;BME280;7976;52.526;13.326;2022-08-01T07:20:11;100833.91;;;21.81;80.87
15750;BME280;7976;52.526;13.326;2022-08-01T07:22:40;100838.63;;;21.78;80.57
15750;BME280;7976;52.526;13.326;2022-08-01T07:25:08;100835.47;;;21.73;80.69
15750;BME280;7976;52.526;13.326;2022-08-01T07:27:36;100828.53;;;21.70;81.34
15750;BME280;7976;52.526;13.326;2022-08-01T07:30:05;100831.47;;;21.67;80.91
15750;BME280;7976;52.526;13.326;2022-08-01T07:32:32;100837.53;;;21.69;81.16
15750;BME280;7976;52.526;13.326;2022-08-01T07:35:00;100839.63;;;21.77;80.67
15750;BME280;7976;52.526;13.326;2022-08-01T07:37:27;100831.69;;;21.86;80.67
15750;BME280;7976;52.526;13.326;2022-08-01T07:39:55;100837.38;;;21.93;80.12
15750;BME280;7976;52.526;13.326;2022-08-01T07:42:22;100841.94;;;22.02;79.86
15750;BME280;7976;52.526;13.326;2022-08-01T07:44:49;100837.19;;;22.05;79.31
15750;BME280;7976;52.526;13.326;2022-08-01T07:47:16;100840.84;;;22.04;78.81
15750;BME280;7976;52.526;13.326;2022-08-01T07:49:43;100843.03;;;21.99;78.97
15750;BME280;7976;52.526;13.326;2022-08-01T07:52:09;100847.03;;;21.94;78.56
15750;BME280;7976;52.526;13.326;2022-08-01T07:54:37;100852.75;;;21.89;79.02
15750;BME280;7976;52.526;13.326;2022-08-01T07:57:06;100863.34;;;21.80;78.52
15750;BME280;7976;52.526;13.326;2022-08-01T07:59:33;100858.34;;;21.75;78.98
15750;BME280;7976;52.526;13.326;2022-08-01T08:02:00;100865.84;;;21.70;79.21
15750;BME280;7976;52.526;13.326;2022-08-01T08:04:27;100864.19;;;21.69;79.55
15750;BME280;7976;52.526;13.326;2022-08-01T08:06:54;100874.97;;;21.68;79.33
15750;BME280;7976;52.526;13.326;2022-08-01T08:09:22;100869.75;;;21.66;79.29
15750;BME280;7976;52.526;13.326;2022-08-01T08:11:48;100868.91;;;21.66;79.63
15750;BME280;7976;52.526;13.326;2022-08-01T08:14:18;100862.50;;;21.68;79.28
15750;BME280;7976;52.526;13.326;2022-08-01T08:16:45;100862.84;;;21.75;79.36
15750;BME280;7976;52.526;13.326;2022-08-01T08:19:12;100875.56;;;21.82;79.13
15750;BME280;7976;52.526;13.326;2022-08-01T08:21:40;100871.69;;;21.86;78.37
15750;BME280;7976;52.526;13.326;2022-08-01T08:24:07;100871.44;;;21.89;78.24
15750;BME280;7976;52.526;13.326;2022-08-01T08:26:47;100879.28;;;21.91;77.92
15750;BME280;7976;52.526;13.326;2022-08-01T08:29:14;100876.50;;;21.92;77.72
15750;BME280;7976;52.526;13.326;2022-08-01T08:31:43;100872.63;;;21.96;77.83
15750;BME280;7976;52.526;13.326;2022-08-01T08:34:10;100873.81;;;22.03;77.52
15750;BME280;7976;52.526;13.326;2022-08-01T08:36:36;100873.28;;;22.09;76.74
15750;BME280;7976;52.526;13.326;2022-08-01T08:39:04;100869.41;;;22.13;76.81
15750;BME280;7976;52.526;13.326;2022-08-01T08:41:31;100879.81;;;22.16;76.68
15750;BME280;7976;52.526;13.326;2022-08-01T08:44:00;100871.09;;;22.14;76.14
15750;BME280;7976;52.526;13.326;2022-08-01T08:46:28;100880.31;;;22.10;75.88
15750;BME280;7976;52.526;13.326;2022-08-01T08:48:56;100872.56;;;22.07;75.73
15750;BME280;7976;52.526;13.326;2022-08-01T08:51:26;100870.50;;;22.11;75.79
15750;BME280;7976;52.526;13.326;2022-08-01T08:53:55;100877.88;;;22.18;75.78
15750;BME280;7976;52.526;13.326;2022-08-01T08:56:26;100871.25;;;22.33;74.86
15750;BME280;7976;52.526;13.326;2022-08-01T08:58:55;100873.34;;;22.51;74.89
15750;BME280;7976;52.526;13.326;2022-08-01T09:01:23;100881.66;;;22.68;73.76
15750;BME280;7976;52.526;13.326;2022-08-01T09:03:50;100878.06;;;22.79;72.69
15750;BME280;7976;52.526;13.326;2022-08-01T09:06:19;100879.50;;;22.83;72.24
15750;BME280;7976;52.526;13.326;2022-08-01T09:08:46;100882.56;;;22.78;72.42
15750;BME280;7976;52.526;13.326;2022-08-01T09:11:13;100876.91;;;22.72;72.67
15750;BME280;7976;52.526;13.326;2022-08-01T09:13:40;100890.06;;;22.64;72.43
15750;BME280;7976;52.526;13.326;2022-08-01T09:16:07;100890.56;;;22.58;72.30
15750;BME280;7976;52.526;13.326;2022-08-01T09:18:36;100890.97;;;22.53;72.45
15750;BME280;7976;52.526;13.326;2022-08-01T09:21:16;100893.50;;;22.55;72.71
15750;BME280;7976;52.526;13.326;2022-08-01T09:23:47;100893.94;;;22.60;72.53
15750;BME280;7976;52.526;13.326;2022-08-01T09:26:20;100903.88;;;22.69;71.92
15750;BME280;7976;52.526;13.326;2022-08-01T09:28:48;100897.00;;;22.76;72.14
15750;BME280;7976;52.526;13.326;2022-08-01T09:31:17;100895.78;;;22.80;71.90
15750;BME280;7976;52.526;13.326;2022-08-01T09:33:51;100902.78;;;22.81;71.63
15750;BME280;7976;52.526;13.326;2022-08-01T09:36:19;100911.19;;;22.76;71.83
15750;BME280;7976;52.526;13.326;2022-08-01T09:38:49;100907.22;;;22.71;71.57
15750;BME280;7976;52.526;13.326;2022-08-01T09:41:16;100913.94;;;22.65;72.12
15750;BME280;7976;52.526;13.326;2022-08-01T09:43:49;100915.16;;;22.61;71.81
15750;BME280;7976;52.526;13.326;2022-08-01T09:46:17;100920.41;;;22.52;72.15
15750;BME280;7976;52.526;13.326;2022-08-01T09:48:58;100924.56;;;22.45;72.30
15750;BME280;7976;52.526;13.326;2022-08-01T09:51:31;100928.34;;;22.42;72.81
15750;BME280;7976;52.526;13.326;2022-08-01T09:54:01;100930.88;;;22.44;73.37
15750;BME280;7976;52.526;13.326;2022-08-01T09:56:37;100937.63;;;22.48;72.89
15750;BME280;7976;52.526;13.326;2022-08-01T09:59:05;100934.72;;;22.51;72.81
15750;BME280;7976;52.526;13.326;2022-08-01T10:01:47;100933.75;;;22.52;72.59
15750;BME280;7976;52.526;13.326;2022-08-01T10:04:16;100939.72;;;22.55;72.68
15750;BME280;7976;52.526;13.326;2022-08-01T10:06:46;100934.44;;;22.65;72.35
15750;BME280;7976;52.526;13.326;2022-08-01T10:09:27;100938.16;;;22.73;71.98
15750;BME280;7976;52.526;13.326;2022-08-01T10:11:55;100943.84;;;22.80;71.74
15750;BME280;7976;52.526;13.326;2022-08-01T10:14:25;100947.69;;;22.87;71.63
15750;BME280;7976;52.526;13.326;2022-08-01T10:16:56;100948.13;;;22.92;71.77
15750;BME280;7976;52.526;13.326;2022-08-01T10:19:25;100959.16;;;22.98;71.32
15750;BME280;7976;52.526;13.326;2022-08-01T10:21:54;100951.44;;;23.05;70.94
15750;BME280;7976;52.526;13.326;2022-08-01T10:24:24;100958.59;;;23.04;71.07
15750;BME280;7976;52.526;13.326;2022-08-01T10:26:56;100950.59;;;23.04;70.73
15750;BME280;7976;52.526;13.326;2022-08-01T10:29:26;100957.25;;;23.10;70.83
15750;BME280;7976;52.526;13.326;2022-08-01T10:31:54;100950.81;;;23.12;70.50
15750;BME280;7976;52.526;13.326;2022-08-01T10:34:21;100954.56;;;23.10;70.84
15750;BME280;7976;52.526;13.326;2022-08-01T10:36:48;100961.13;;;23.06;70.65
15750;BME280;7976;52.526;13.326;2022-08-01T10:39:17;100956.94;;;23.03;71.08
15750;BME280;7976;52.526;13.326;2022-08-01T10:41:46;100952.56;;;23.02;70.50
15750;BME280;7976;52.526;13.326;2022-08-01T10:44:14;100962.53;;;23.00;70.72
15750;BME280;7976;52.526;13.326;2022-08-01T10:46:48;100960.69;;;23.01;70.70
15750;BME280;7976;52.526;13.326;2022-08-01T10:49:20;100965.22;;;23.00;70.85
15750;BME280;7976;52.526;13.326;2022-08-01T10:51:50;100961.81;;;22.98;70.62
15750;BME280;7976;52.526;13.326;2022-08-01T10:54:17;100961.69;;;23.00;70.90
15750;BME280;7976;52.526;13.326;2022-08-01T10:56:48;100962.25;;;23.03;70.66
15750;BME280;7976;52.526;13.326;2022-08-01T10:59:22;100966.94;;;23.11;70.27
15750;BME280;7976;52.526;13.326;2022-08-01T11:01:57;100955.34;;;23.21;70.18
15750;BME280;7976;52.526;13.326;2022-08-01T11:04:40;100960.31;;;23.26;70.13
15750;BME280;7976;52.526;13.326;2022-08-01T11:07:16;100963.19;;;23.34;70.20
15750;BME280;7976;52.526;13.326;2022-08-01T11:09:46;100963.63;;;23.39;69.58
15750;BME280;7976;52.526;13.326;2022-08-01T11:12:17;100974.31;;;23.39;69.82
15750;BME280;7976;52.526;13.326;2022-08-01T11:15:22;100965.72;;;23.35;69.74
15750;BME280;7976;52.526;13.326;2022-08-01T11:17:55;100971.38;;;23.21;69.58
15750;BME280;7976;52.526;13.326;2022-08-01T11:20:24;100985.63;;;23.11;70.27
15750;BME280;7976;52.526;13.326;2022-08-01T11:23:26;100987.94;;;22.95;70.45
15750;BME280;7976;52.526;13.326;2022-08-01T11:26:12;100995.69;;;22.77;71.41
15750;BME280;7976;52.526;13.326;2022-08-01T11:28:43;101001.91;;;22.67;71.78
15750;BME280;7976;52.526;13.326;2022-08-01T11:31:31;101000.44;;;22.63;72.93
15750;BME280;7976;52.526;13.326;2022-08-01T11:34:00;101003.78;;;22.55;72.98
15750;BME280;7976;52.526;13.326;2022-08-01T11:36:27;101008.47;;;22.52;74.19
15750;BME280;7976;52.526;13.326;2022-08-01T11:39:15;101010.91;;;22.55;74.68
15750;BME280;7976;52.526;13.326;2022-08-01T11:41:45;100999.03;;;22.59;74.52
15750;BME280;7976;52.526;13.326;2022-08-01T11:44:17;101013.31;;;22.69;74.23
15750;BME280;7976;52.526;13.326;2022-08-01T11:46:58;101011.78;;;22.76;73.73
15750;BME280;7976;52.526;13.326;2022-08-01T11:52:27;101006.34;;;22.98;73.28
15750;BME280;7976;52.526;13.326;2022-08-01T11:54:56;101011.53;;;23.10;72.92
15750;BME280;7976;52.526;13.326;2022-08-01T11:57:25;101009.91;;;23.19;72.44
15750;BME280;7976;52.526;13.326;2022-08-01T11:59:56;101009.00;;;23.29;71.83
15750;BME280;7976;52.526;13.326;2022-08-01T12:02:25;101006.25;;;23.40;70.85
15750;BME280;7976;52.526;13.326;2022-08-01T12:04:56;100999.28;;;23.49;70.44
15750;BME280;7976;52.526;13.326;2022-08-01T12:07:26;101000.19;;;23.59;69.91
15750;BME280;7976;52.526;13.326;2022-08-01T12:09:59;101005.13;;;23.73;69.98
15750;BME280;7976;52.526;13.326;2022-08-01T12:12:28;101000.44;;;23.86;69.08
15750;BME280;7976;52.526;13.326;2022-08-01T12:15:00;101003.00;;;23.97;68.03
15750;BME280;7976;52.526;13.326;2022-08-01T12:17:33;100999.97;;;24.11;67.61
15750;BME280;7976;52.526;13.326;2022-08-01T12:20:01;101001.28;;;24.26;66.71
15750;BME280;7976;52.526;13.326;2022-08-01T12:22:29;101008.47;;;24.35;65.92
15750;BME280;7976;52.526;13.326;2022-08-01T12:25:06;101010.19;;;24.36;65.60
15750;BME280;7976;52.526;13.326;2022-08-01T12:27:34;101005.78;;;24.35;66.08
15750;BME280;7976;52.526;13.326;2022-08-01T12:30:09;100995.50;;;24.40;65.81
15750;BME280;7976;52.526;13.326;2022-08-01T12:32:41;101003.97;;;24.55;65.49
15750;BME280;7976;52.526;13.326;2022-08-01T12:35:11;101014.44;;;24.67;64.71
15750;BME280;7976;52.526;13.326;2022-08-01T12:37:41;101001.31;;;24.64;64.74
15750;BME280;7976;52.526;13.326;2022-08-01T12:40:12;101000.91;;;24.59;64.84
15750;BME280;7976;52.526;13.326;2022-08-01T12:42:41;100996.94;;;24.54;64.81
15750;BME280;7976;52.526;13.326;2022-08-01T12:45:14;101003.16;;;24.54;64.65
15750;BME280;7976;52.526;13.326;2022-08-01T12:47:42;101006.97;;;24.61;64.65
15750;BME280;7976;52.526;13.326;2022-08-01T12:50:18;100999.25;;;24.68;64.70
15750;BME280;7976;52.526;13.326;2022-08-01T12:52:46;100987.66;;;24.77;64.18
15750;BME280;7976;52.526;13.326;2022-08-01T12:55:16;100992.19;;;24.86;63.36
15750;BME280;7976;52.526;13.326;2022-08-01T12:57:47;100990.78;;;24.92;63.52
15750;BME280;7976;52.526;13.326;2022-08-01T13:00:21;100996.97;;;24.92;63.11
15750;BME280;7976;52.526;13.326;2022-08-01T13:02:59;100994.44;;;24.81;63.38
15750;BME280;7976;52.526;13.326;2022-08-01T13:05:27;101004.28;;;24.61;63.97
15750;BME280;7976;52.526;13.326;2022-08-01T13:07:54;100995.94;;;24.45;64.16
15750;BME280;7976;52.526;13.326;2022-08-01T13:10:27;100999.59;;;24.35;64.57